AAO256 EGPH-EGCC
Flight info
| Callsign | AAO256 |
|---|---|
| Flight time | 0h 42m |
| Altitude | 25000 |
| Route | GOSAM P600 FENIK L612 LAKEY |
| Aircraft | B736/M-SDE2E3FGHIRWXY/LB1 |
Departure
| Time | 2026-05-04 12:48 |
|---|---|
| Airport | Edinburgh Airport (EGPH) |
Arrival
| Time | 2026-05-04 13:30 |
|---|---|
| Airport | Manchester Airport (EGCC) |
| Time | Latitude | Longitude | Altitude | Speed | Heading |
|---|---|---|---|---|---|
| 2026-05-04 12:28 | 55.94878 | -3.36544 | 107 ft | 0 kts | 149° |
| 2026-05-04 12:39 | 55.94881 | -3.36548 | 107 ft | 2 kts | 149° |
| 2026-05-04 12:39 | 55.94895 | -3.36563 | 105 ft | 2 kts | 149° |
| 2026-05-04 12:39 | 55.94909 | -3.36578 | 107 ft | 2 kts | 147° |
| 2026-05-04 12:40 | 55.94922 | -3.36596 | 107 ft | 2 kts | 108° |
| 2026-05-04 12:40 | 55.94923 | -3.36618 | 108 ft | 1 kts | 68° |
| 2026-05-04 12:40 | 55.94923 | -3.36620 | 108 ft | 0 kts | 67° |
| 2026-05-04 12:44 | 55.94933 | -3.36594 | 107 ft | 9 kts | 47° |
| 2026-05-04 12:44 | 55.94977 | -3.36510 | 109 ft | 9 kts | 57° |
| 2026-05-04 12:44 | 55.95011 | -3.36413 | 109 ft | 9 kts | 48° |
| 2026-05-04 12:44 | 55.95070 | -3.36398 | 111 ft | 9 kts | 1° |
| 2026-05-04 12:45 | 55.95118 | -3.36333 | 109 ft | 9 kts | 57° |
| 2026-05-04 12:45 | 55.95171 | -3.36175 | 108 ft | 18 kts | 59° |
| 2026-05-04 12:45 | 55.95236 | -3.35979 | 105 ft | 19 kts | 58° |
| 2026-05-04 12:45 | 55.95302 | -3.35786 | 106 ft | 18 kts | 57° |
| 2026-05-04 12:46 | 55.95366 | -3.35599 | 107 ft | 17 kts | 56° |
| 2026-05-04 12:46 | 55.95425 | -3.35427 | 108 ft | 14 kts | 49° |
| 2026-05-04 12:46 | 55.95507 | -3.35448 | 106 ft | 12 kts | 329° |
| 2026-05-04 12:46 | 55.95569 | -3.35534 | 107 ft | 10 kts | 291° |
| 2026-05-04 12:47 | 55.95554 | -3.35611 | 107 ft | 9 kts | 237° |
| 2026-05-04 12:47 | 55.95414 | -3.36024 | 105 ft | 74 kts | 239° |
| 2026-05-04 12:47 | 55.95176 | -3.36727 | 112 ft | 120 kts | 238° |
| 2026-05-04 12:47 | 55.94682 | -3.38231 | 382 ft | 153 kts | 240° |
| 2026-05-04 12:48 | 55.94131 | -3.39837 | 1342 ft | 144 kts | 241° |
| 2026-05-04 12:48 | 55.93600 | -3.41327 | 2325 ft | 146 kts | 242° |
| 2026-05-04 12:48 | 55.93020 | -3.43047 | 2840 ft | 179 kts | 242° |
| 2026-05-04 12:48 | 55.92323 | -3.45101 | 3263 ft | 208 kts | 242° |
| 2026-05-04 12:49 | 55.91481 | -3.47473 | 3686 ft | 242 kts | 238° |
| 2026-05-04 12:49 | 55.90599 | -3.50094 | 4565 ft | 254 kts | 248° |
| 2026-05-04 12:49 | 55.90202 | -3.53168 | 5026 ft | 250 kts | 262° |
| 2026-05-04 12:49 | 55.89918 | -3.56203 | 5523 ft | 248 kts | 261° |
| 2026-05-04 12:50 | 55.89620 | -3.59232 | 5838 ft | 251 kts | 261° |
| 2026-05-04 12:50 | 55.89310 | -3.62325 | 6188 ft | 258 kts | 261° |
| 2026-05-04 12:50 | 55.88995 | -3.65486 | 7191 ft | 258 kts | 261° |
| 2026-05-04 12:50 | 55.88677 | -3.68638 | 8255 ft | 260 kts | 261° |
| 2026-05-04 12:51 | 55.88355 | -3.71843 | 9212 ft | 265 kts | 261° |
| 2026-05-04 12:51 | 55.88028 | -3.75093 | 10206 ft | 268 kts | 261° |
| 2026-05-04 12:51 | 55.87690 | -3.78445 | 10782 ft | 287 kts | 261° |
| 2026-05-04 12:51 | 55.87326 | -3.82083 | 10973 ft | 316 kts | 261° |
| 2026-05-04 12:52 | 55.86935 | -3.86018 | 11586 ft | 328 kts | 261° |
| 2026-05-04 12:52 | 55.86532 | -3.90058 | 12372 ft | 335 kts | 261° |
| 2026-05-04 12:52 | 55.86121 | -3.94165 | 13277 ft | 339 kts | 261° |
| 2026-05-04 12:52 | 55.85705 | -3.98323 | 14134 ft | 344 kts | 261° |
| 2026-05-04 12:53 | 55.85281 | -4.02537 | 14960 ft | 347 kts | 261° |
| 2026-05-04 12:53 | 55.84850 | -4.06794 | 15794 ft | 351 kts | 261° |
| 2026-05-04 12:53 | 55.84224 | -4.11015 | 16562 ft | 360 kts | 245° |
| 2026-05-04 12:53 | 55.82652 | -4.14511 | 17406 ft | 369 kts | 222° |
| 2026-05-04 12:54 | 55.80627 | -4.17344 | 18264 ft | 372 kts | 223° |
| 2026-05-04 12:54 | 55.78708 | -4.20484 | 18910 ft | 378 kts | 226° |
| 2026-05-04 12:54 | 55.76621 | -4.23412 | 19537 ft | 386 kts | 217° |
| 2026-05-04 12:54 | 55.74304 | -4.25890 | 20190 ft | 396 kts | 204° |
| 2026-05-04 12:55 | 55.71602 | -4.26833 | 20842 ft | 407 kts | 182° |
| 2026-05-04 12:55 | 55.68736 | -4.26211 | 21554 ft | 415 kts | 166° |
| 2026-05-04 12:55 | 55.66080 | -4.24128 | 22209 ft | 421 kts | 152° |
| 2026-05-04 12:55 | 55.63514 | -4.21568 | 22863 ft | 427 kts | 150° |
| 2026-05-04 12:56 | 55.60953 | -4.18949 | 23399 ft | 432 kts | 150° |
| 2026-05-04 12:56 | 55.58355 | -4.16316 | 23898 ft | 434 kts | 150° |
| 2026-05-04 12:56 | 55.55696 | -4.13671 | 24158 ft | 439 kts | 151° |
| 2026-05-04 12:56 | 55.53021 | -4.11050 | 24388 ft | 440 kts | 151° |
| 2026-05-04 12:57 | 55.50335 | -4.08437 | 24624 ft | 441 kts | 151° |
| 2026-05-04 12:57 | 55.47643 | -4.05825 | 24868 ft | 441 kts | 151° |
| 2026-05-04 12:57 | 55.44969 | -4.03232 | 25039 ft | 439 kts | 151° |
| 2026-05-04 12:57 | 55.42265 | -4.00612 | 25036 ft | 447 kts | 151° |
| 2026-05-04 12:58 | 55.39537 | -3.97972 | 25039 ft | 448 kts | 151° |
| 2026-05-04 12:58 | 55.36790 | -3.95316 | 25044 ft | 452 kts | 151° |
| 2026-05-04 12:58 | 55.34035 | -3.92657 | 25039 ft | 450 kts | 151° |
| 2026-05-04 12:58 | 55.31296 | -3.90016 | 25028 ft | 448 kts | 151° |
| 2026-05-04 12:59 | 55.28600 | -3.87421 | 25034 ft | 448 kts | 151° |
| 2026-05-04 12:59 | 55.25866 | -3.84792 | 25038 ft | 448 kts | 151° |
| 2026-05-04 12:59 | 55.23130 | -3.82169 | 25033 ft | 448 kts | 151° |
| 2026-05-04 12:59 | 55.20394 | -3.79550 | 25039 ft | 448 kts | 151° |
| 2026-05-04 13:00 | 55.17656 | -3.76935 | 25035 ft | 448 kts | 151° |
| 2026-05-04 13:00 | 55.14921 | -3.74326 | 25035 ft | 448 kts | 151° |
| 2026-05-04 13:00 | 55.12186 | -3.71721 | 25036 ft | 448 kts | 151° |
| 2026-05-04 13:00 | 55.09447 | -3.69114 | 25029 ft | 448 kts | 151° |
| 2026-05-04 13:01 | 55.06712 | -3.66515 | 25040 ft | 447 kts | 151° |
| 2026-05-04 13:01 | 55.03974 | -3.63917 | 25035 ft | 447 kts | 151° |
| 2026-05-04 13:01 | 55.01237 | -3.61323 | 25041 ft | 447 kts | 151° |
| 2026-05-04 13:01 | 54.98503 | -3.58738 | 25038 ft | 447 kts | 151° |
| 2026-05-04 13:02 | 54.95800 | -3.56187 | 25036 ft | 447 kts | 151° |
| 2026-05-04 13:02 | 54.93083 | -3.53628 | 25047 ft | 446 kts | 151° |
| 2026-05-04 13:02 | 54.90352 | -3.51060 | 25048 ft | 446 kts | 151° |
| 2026-05-04 13:02 | 54.87624 | -3.48498 | 25048 ft | 446 kts | 151° |
| 2026-05-04 13:03 | 54.84896 | -3.45938 | 25050 ft | 446 kts | 151° |
| 2026-05-04 13:03 | 54.82167 | -3.43381 | 25047 ft | 445 kts | 151° |
| 2026-05-04 13:03 | 54.79443 | -3.40832 | 25051 ft | 445 kts | 151° |
| 2026-05-04 13:03 | 54.76719 | -3.38286 | 25061 ft | 445 kts | 151° |
| 2026-05-04 13:04 | 54.73986 | -3.35737 | 25063 ft | 445 kts | 151° |
| 2026-05-04 13:04 | 54.71226 | -3.33247 | 25062 ft | 446 kts | 153° |
| 2026-05-04 13:04 | 54.68404 | -3.31027 | 25056 ft | 446 kts | 155° |
| 2026-05-04 13:04 | 54.65546 | -3.28923 | 25061 ft | 446 kts | 156° |
| 2026-05-04 13:05 | 54.62682 | -3.26847 | 25057 ft | 446 kts | 156° |
| 2026-05-04 13:05 | 54.59864 | -3.24786 | 25051 ft | 446 kts | 156° |
| 2026-05-04 13:05 | 54.57021 | -3.22680 | 25052 ft | 444 kts | 155° |
| 2026-05-04 13:05 | 54.54210 | -3.20581 | 25048 ft | 437 kts | 155° |
| 2026-05-04 13:06 | 54.51435 | -3.18508 | 25056 ft | 434 kts | 155° |
| 2026-05-04 13:06 | 54.48668 | -3.16443 | 25056 ft | 434 kts | 155° |
| 2026-05-04 13:06 | 54.45894 | -3.14379 | 25033 ft | 434 kts | 155° |
| 2026-05-04 13:06 | 54.43116 | -3.12318 | 24508 ft | 434 kts | 155° |
| 2026-05-04 13:07 | 54.40352 | -3.10270 | 23940 ft | 430 kts | 155° |
| 2026-05-04 13:07 | 54.37624 | -3.08251 | 23272 ft | 425 kts | 156° |
| 2026-05-04 13:07 | 54.34918 | -3.06251 | 22581 ft | 420 kts | 156° |
| 2026-05-04 13:07 | 54.32250 | -3.04281 | 21931 ft | 416 kts | 156° |
| 2026-05-04 13:08 | 54.29606 | -3.02329 | 21302 ft | 411 kts | 156° |
| 2026-05-04 13:08 | 54.26997 | -3.00408 | 20698 ft | 406 kts | 156° |
| 2026-05-04 13:08 | 54.24412 | -2.98505 | 20115 ft | 402 kts | 156° |
| 2026-05-04 13:08 | 54.21961 | -2.96285 | 19586 ft | 397 kts | 148° |
| 2026-05-04 13:09 | 54.19664 | -2.93728 | 19089 ft | 392 kts | 146° |
| 2026-05-04 13:09 | 54.17417 | -2.91107 | 18597 ft | 390 kts | 146° |
| 2026-05-04 13:09 | 54.15184 | -2.88496 | 18056 ft | 388 kts | 146° |
| 2026-05-04 13:09 | 54.12957 | -2.85923 | 17503 ft | 386 kts | 147° |
| 2026-05-04 13:10 | 54.10730 | -2.83384 | 16977 ft | 383 kts | 147° |
| 2026-05-04 13:10 | 54.08516 | -2.80887 | 16467 ft | 380 kts | 147° |
| 2026-05-04 13:10 | 54.06308 | -2.78412 | 15984 ft | 378 kts | 147° |
| 2026-05-04 13:10 | 54.04122 | -2.75972 | 15491 ft | 376 kts | 147° |
| 2026-05-04 13:11 | 54.01938 | -2.73540 | 15007 ft | 373 kts | 147° |
| 2026-05-04 13:11 | 53.99771 | -2.71131 | 14528 ft | 371 kts | 148° |
| 2026-05-04 13:11 | 53.97620 | -2.68741 | 14053 ft | 369 kts | 148° |
| 2026-05-04 13:11 | 53.95500 | -2.66390 | 13551 ft | 367 kts | 148° |
| 2026-05-04 13:12 | 53.93369 | -2.64027 | 13025 ft | 364 kts | 148° |
| 2026-05-04 13:12 | 53.91233 | -2.61662 | 12541 ft | 360 kts | 148° |
| 2026-05-04 13:12 | 53.89188 | -2.59400 | 12058 ft | 348 kts | 147° |
| 2026-05-04 13:12 | 53.87204 | -2.57208 | 11624 ft | 333 kts | 148° |
| 2026-05-04 13:13 | 53.85305 | -2.55114 | 11196 ft | 320 kts | 148° |
| 2026-05-04 13:13 | 53.83766 | -2.53418 | 10845 ft | 311 kts | 148° |
| 2026-05-04 13:13 | 53.81984 | -2.51459 | 10453 ft | 301 kts | 148° |
| 2026-05-04 13:13 | 53.80258 | -2.49562 | 10077 ft | 292 kts | 148° |
| 2026-05-04 13:14 | 53.78579 | -2.47717 | 9676 ft | 284 kts | 148° |
| 2026-05-04 13:14 | 53.76946 | -2.45926 | 9290 ft | 276 kts | 148° |
| 2026-05-04 13:14 | 53.75350 | -2.44176 | 8918 ft | 271 kts | 147° |
| 2026-05-04 13:14 | 53.73785 | -2.42461 | 8562 ft | 264 kts | 147° |
| 2026-05-04 13:15 | 53.72260 | -2.40791 | 8218 ft | 258 kts | 147° |
| 2026-05-04 13:15 | 53.70754 | -2.39144 | 7902 ft | 260 kts | 147° |
| 2026-05-04 13:15 | 53.69224 | -2.37473 | 7570 ft | 264 kts | 147° |
| 2026-05-04 13:15 | 53.67680 | -2.35789 | 7225 ft | 265 kts | 147° |
| 2026-05-04 13:16 | 53.66034 | -2.34494 | 7030 ft | 258 kts | 170° |
| 2026-05-04 13:16 | 53.64272 | -2.34557 | 6851 ft | 252 kts | 190° |
| 2026-05-04 13:16 | 53.62559 | -2.35133 | 6570 ft | 251 kts | 192° |
| 2026-05-04 13:16 | 53.60851 | -2.35764 | 6282 ft | 251 kts | 193° |
| 2026-05-04 13:17 | 53.59154 | -2.36402 | 5987 ft | 250 kts | 193° |
| 2026-05-04 13:17 | 53.57479 | -2.37036 | 5709 ft | 249 kts | 193° |
| 2026-05-04 13:17 | 53.55771 | -2.37686 | 5426 ft | 248 kts | 193° |
| 2026-05-04 13:17 | 53.54091 | -2.38329 | 5151 ft | 247 kts | 193° |
| 2026-05-04 13:18 | 53.52437 | -2.38963 | 4870 ft | 247 kts | 193° |
| 2026-05-04 13:18 | 53.50763 | -2.39605 | 4605 ft | 246 kts | 193° |
| 2026-05-04 13:18 | 53.49102 | -2.40241 | 4351 ft | 244 kts | 193° |
| 2026-05-04 13:18 | 53.47506 | -2.40853 | 4099 ft | 243 kts | 193° |
| 2026-05-04 13:19 | 53.45975 | -2.41969 | 3802 ft | 242 kts | 219° |
| 2026-05-04 13:19 | 53.44808 | -2.43978 | 3593 ft | 241 kts | 229° |
| 2026-05-04 13:19 | 53.43720 | -2.46100 | 3525 ft | 236 kts | 230° |
| 2026-05-04 13:19 | 53.42676 | -2.48162 | 3504 ft | 229 kts | 230° |
| 2026-05-04 13:20 | 53.41651 | -2.50194 | 3494 ft | 228 kts | 230° |
| 2026-05-04 13:20 | 53.40626 | -2.52230 | 3497 ft | 228 kts | 230° |
| 2026-05-04 13:20 | 53.39600 | -2.54266 | 3509 ft | 230 kts | 230° |
| 2026-05-04 13:20 | 53.38566 | -2.56317 | 3505 ft | 231 kts | 230° |
| 2026-05-04 13:21 | 53.37525 | -2.58381 | 3510 ft | 232 kts | 230° |
| 2026-05-04 13:21 | 53.36476 | -2.60460 | 3509 ft | 234 kts | 230° |
| 2026-05-04 13:21 | 53.35427 | -2.62540 | 3506 ft | 234 kts | 230° |
| 2026-05-04 13:21 | 53.34385 | -2.64604 | 3513 ft | 235 kts | 230° |
| 2026-05-04 13:22 | 53.33330 | -2.66695 | 3499 ft | 235 kts | 230° |
| 2026-05-04 13:22 | 53.32280 | -2.68774 | 3497 ft | 233 kts | 230° |
| 2026-05-04 13:22 | 53.31239 | -2.70835 | 3496 ft | 230 kts | 230° |
| 2026-05-04 13:22 | 53.30209 | -2.72868 | 3500 ft | 228 kts | 228° |
| 2026-05-04 13:23 | 53.28920 | -2.74356 | 3500 ft | 227 kts | 197° |
| 2026-05-04 13:23 | 53.27368 | -2.74438 | 3496 ft | 226 kts | 164° |
| 2026-05-04 13:23 | 53.25988 | -2.73230 | 3324 ft | 224 kts | 144° |
| 2026-05-04 13:23 | 53.24720 | -2.71682 | 3059 ft | 227 kts | 143° |
| 2026-05-04 13:24 | 53.23457 | -2.70106 | 3015 ft | 223 kts | 143° |
| 2026-05-04 13:24 | 53.22478 | -2.68229 | 2987 ft | 209 kts | 112° |
| 2026-05-04 13:24 | 53.22118 | -2.65929 | 3008 ft | 204 kts | 101° |
| 2026-05-04 13:25 | 53.21607 | -2.61320 | 3011 ft | 198 kts | 101° |
| 2026-05-04 13:25 | 53.21331 | -2.59097 | 2999 ft | 192 kts | 102° |
| 2026-05-04 13:25 | 53.21228 | -2.56990 | 2963 ft | 183 kts | 72° |
| 2026-05-04 13:25 | 53.21886 | -2.55204 | 3014 ft | 183 kts | 54° |
| 2026-05-04 13:26 | 53.22574 | -2.53436 | 3006 ft | 176 kts | 57° |
| 2026-05-04 13:26 | 53.23241 | -2.51851 | 2974 ft | 158 kts | 53° |
| 2026-05-04 13:26 | 53.23901 | -2.50418 | 2996 ft | 156 kts | 52° |
| 2026-05-04 13:26 | 53.24585 | -2.48974 | 2952 ft | 163 kts | 51° |
| 2026-05-04 13:27 | 53.25305 | -2.47471 | 2738 ft | 166 kts | 51° |
| 2026-05-04 13:27 | 53.26018 | -2.45985 | 2508 ft | 160 kts | 51° |
| 2026-05-04 13:27 | 53.26702 | -2.44563 | 2311 ft | 156 kts | 51° |
| 2026-05-04 13:27 | 53.27389 | -2.43133 | 2096 ft | 159 kts | 51° |
| 2026-05-04 13:28 | 53.28079 | -2.41698 | 1863 ft | 154 kts | 51° |
| 2026-05-04 13:28 | 53.28725 | -2.40354 | 1706 ft | 142 kts | 51° |
| 2026-05-04 13:28 | 53.29338 | -2.39080 | 1471 ft | 137 kts | 51° |
| 2026-05-04 13:28 | 53.29925 | -2.37862 | 1276 ft | 132 kts | 51° |
| 2026-05-04 13:29 | 53.30505 | -2.36656 | 1101 ft | 134 kts | 51° |
| 2026-05-04 13:29 | 53.31081 | -2.35461 | 911 ft | 136 kts | 51° |
| 2026-05-04 13:29 | 53.31677 | -2.34216 | 708 ft | 136 kts | 52° |
| 2026-05-04 13:29 | 53.32262 | -2.32982 | 544 ft | 135 kts | 52° |
| 2026-05-04 13:30 | 53.32861 | -2.31762 | 336 ft | 136 kts | 51° |
| 2026-05-04 13:30 | 53.33453 | -2.30537 | 202 ft | 132 kts | 51° |
| 2026-05-04 13:30 | 53.33966 | -2.29475 | 212 ft | 101 kts | 51° |
| 2026-05-04 13:30 | 53.34292 | -2.28804 | 220 ft | 36 kts | 50° |
| 2026-05-04 13:31 | 53.34451 | -2.28580 | 223 ft | 29 kts | 27° |
| 2026-05-04 13:31 | 53.34618 | -2.28465 | 226 ft | 20 kts | 21° |
| 2026-05-04 13:31 | 53.34707 | -2.28398 | 228 ft | 10 kts | 36° |
| 2026-05-04 13:31 | 53.34766 | -2.28292 | 227 ft | 13 kts | 53° |
| 2026-05-04 13:32 | 53.34823 | -2.28172 | 228 ft | 13 kts | 51° |
| 2026-05-04 13:32 | 53.34878 | -2.28057 | 229 ft | 13 kts | 51° |
| 2026-05-04 13:32 | 53.34933 | -2.27945 | 231 ft | 12 kts | 53° |
| 2026-05-04 13:32 | 53.34990 | -2.27829 | 232 ft | 14 kts | 51° |
| 2026-05-04 13:33 | 53.35053 | -2.27698 | 234 ft | 14 kts | 51° |
| 2026-05-04 13:33 | 53.35114 | -2.27571 | 235 ft | 14 kts | 50° |
| 2026-05-04 13:33 | 53.35173 | -2.27451 | 237 ft | 13 kts | 52° |
| 2026-05-04 13:33 | 53.35229 | -2.27333 | 238 ft | 13 kts | 52° |
| 2026-05-04 13:34 | 53.35286 | -2.27223 | 238 ft | 11 kts | 38° |
| 2026-05-04 13:34 | 53.35359 | -2.27194 | 240 ft | 11 kts | 350° |
| 2026-05-04 13:34 | 53.35405 | -2.27231 | 240 ft | 11 kts | 325° |
| 2026-05-04 13:34 | 53.35467 | -2.27317 | 241 ft | 11 kts | 321° |
| 2026-05-04 13:35 | 53.35528 | -2.27400 | 240 ft | 11 kts | 321° |
| 2026-05-04 13:35 | 53.35547 | -2.27425 | 240 ft | 0 kts | 321° |
| 2026-05-04 13:35 | 53.35557 | -2.27439 | 240 ft | 8 kts | 321° |
| 2026-05-04 13:36 | 53.35596 | -2.27464 | 240 ft | 9 kts | 359° |
| 2026-05-04 13:36 | 53.35647 | -2.27405 | 241 ft | 9 kts | 46° |
| 2026-05-04 13:36 | 53.35688 | -2.27320 | 242 ft | 10 kts | 53° |
| 2026-05-04 13:36 | 53.35737 | -2.27214 | 243 ft | 16 kts | 51° |
| 2026-05-04 13:37 | 53.35807 | -2.27070 | 245 ft | 15 kts | 51° |
| 2026-05-04 13:37 | 53.35855 | -2.26934 | 247 ft | 12 kts | 55° |
| 2026-05-04 13:37 | 53.35900 | -2.26846 | 248 ft | 10 kts | 40° |
| 2026-05-04 13:37 | 53.35963 | -2.26845 | 248 ft | 9 kts | 4° |
| 2026-05-04 13:38 | 53.36013 | -2.26777 | 249 ft | 10 kts | 51° |
| 2026-05-04 13:38 | 53.36062 | -2.26670 | 250 ft | 8 kts | 58° |
| 2026-05-04 13:38 | 53.36108 | -2.26650 | 251 ft | 8 kts | 341° |
| 2026-05-04 13:38 | 53.36140 | -2.26682 | 251 ft | 4 kts | 325° |
| 2026-05-04 13:39 | 53.36149 | -2.26692 | 251 ft | 0 kts | 325° |